Victoria Clipper IV — C6YL9 — position and weather

sailwx.info

Track history (hours):
 
Tides and Currents Weather Stations Pressure Air Temp Water Temp Dewpoint Dewpoint Depression Visibility Wind Speed Wind Dir Waves Ship Positions

Victoria Clipper IV

Last reported at 2018-Feb-18 01:29 UTC. Time now 2018-Feb-18 01:37 UTC.
Position N 48°26' W 122°30'.

Length 40 m; draft 2.5 m.

Type: High speed craft. MMSI: 311037800.

Date/timePositionNaut miles runAvg speedWind from/ knotsBaromVisibWave heightAir tempDewpointWater temp
2018-Feb-18 01:29N 48°26' W 122°30'4 8.1
2018-Feb-18 01:00N 48°30' W 122°33'1224.4
2018-Feb-18 00:31N 48°32' W 122°50'1224.5
2018-Feb-18 00:00N 48°38' W 123°07'18 3.3
2018-Feb-17 18:26N 48°22' W 123°22'4127.2
2018-Feb-17 16:56N 47°58' W 122°34'1126.6
2018-Feb-17 16:31N 47°47' W 122°26'1121.8
2018-Feb-17 16:00N 47°37' W 122°21'0 0.2
2018-Feb-17 15:25N 47°37' W 122°21'0 0.0
2018-Feb-17 14:59N 47°37' W 122°21'2 3.0
2018-Feb-17 14:29N 47°35' W 122°21'2 0.8
2018-Feb-17 12:32N 47°37' W 122°21'0 0.0
2018-Feb-17 11:14N 47°37' W 122°21'0 0.0
2018-Feb-17 10:50N 47°37' W 122°21'0 0.0
2018-Feb-17 10:26N 47°37' W 122°21'0 0.0
2018-Feb-17 09:56N 47°37' W 122°21'0 0.0
2018-Feb-17 09:14N 47°37' W 122°21'0 0.0
2018-Feb-17 06:56N 47°37' W 122°21'0 0.0
2018-Feb-17 06:23N 47°37' W 122°21'0 0.0
2018-Feb-17 03:44N 47°37' W 122°21'314.4
2018-Feb-17 03:31N 47°38' W 122°26'1428.5
2018-Feb-17 03:00N 47°52' W 122°29'4127.3
2018-Feb-17 01:31N 48°20' W 123°13'229.4
2018-Feb-17 01:28N 48°21' W 123°16'3 0.5
2018-Feb-16 18:20N 48°22' W 123°21'4028.3
2018-Feb-16 16:56N 47°58' W 122°34'1228.3
2018-Feb-16 16:31N 47°47' W 122°26'1113.8
2018-Feb-16 15:45N 47°37' W 122°21'0 0.0
2018-Feb-16 15:24N 47°37' W 122°21'2 3.9
2018-Feb-16 15:00N 47°35' W 122°21'2 2.8
2018-Feb-16 14:29N 47°37' W 122°21'0 0.0
2018-Feb-16 13:59N 47°37' W 122°21'0 0.0
2018-Feb-16 13:29N 47°37' W 122°21'0 0.0
2018-Feb-16 12:59N 47°37' W 122°21'0 0.0
2018-Feb-16 12:29N 47°37' W 122°21'0 0.0
2018-Feb-16 11:59N 47°37' W 122°21'0 0.0
2018-Feb-16 11:29N 47°37' W 122°21'0 0.0
2018-Feb-16 10:59N 47°37' W 122°21'0 0.0
2018-Feb-16 10:29N 47°37' W 122°21'0 0.0
2018-Feb-16 09:59N 47°37' W 122°21'0 0.0
2018-Feb-16 09:29N 47°37' W 122°21'0 0.0
2018-Feb-16 08:59N 47°37' W 122°21'0 0.0
2018-Feb-16 08:17N 47°37' W 122°21'0 0.0
2018-Feb-16 07:47N 47°37' W 122°21'0 0.0
2018-Feb-16 05:59N 47°37' W 122°21'0 0.0
2018-Feb-16 05:26N 47°37' W 122°21'0 0.0
2018-Feb-16 04:50N 47°37' W 122°21'0 0.0
2018-Feb-16 04:23N 47°37' W 122°21'0 0.0
2018-Feb-16 03:59N 47°37' W 122°21'0 0.0
2018-Feb-16 03:29N 47°37' W 122°21'0 0.0
2018-Feb-16 02:59N 47°37' W 122°21'0 0.0
2018-Feb-16 02:26N 47°37' W 122°21'0 0.0
2018-Feb-16 01:59N 47°37' W 122°21'0 0.0
2018-Feb-16 01:29N 47°37' W 122°21'0 0.0
2018-Feb-16 00:59N 47°37' W 122°21'0 0.0
2018-Feb-16 00:29N 47°37' W 122°21'0 0.0
2018-Feb-15 23:59N 47°37' W 122°21'0 0.0
2018-Feb-15 23:20N 47°37' W 122°21'0 0.0
2018-Feb-15 22:59N 47°37' W 122°21'0 0.0
2018-Feb-15 22:29N 47°37' W 122°21'0 0.0
2018-Feb-15 21:59N 47°37' W 122°21'0 0.0
2018-Feb-15 21:29N 47°37' W 122°21'0 0.0
2018-Feb-15 20:59N 47°37' W 122°21'0 0.0
2018-Feb-15 20:29N 47°37' W 122°21'0 0.0
2018-Feb-15 19:50N 47°37' W 122°21'0 0.0
2018-Feb-15 19:29N 47°37' W 122°21'0 0.0
2018-Feb-15 18:59N 47°37' W 122°21'0 0.0
2018-Feb-15 18:29N 47°37' W 122°21'0 0.0
2018-Feb-15 17:59N 47°37' W 122°21'0 0.0
2018-Feb-15 17:29N 47°37' W 122°21'0 0.0
2018-Feb-15 16:59N 47°37' W 122°21'0 0.0
2018-Feb-15 16:29N 47°37' W 122°21'0 0.0
2018-Feb-15 15:56N 47°37' W 122°21'0 0.0
2018-Feb-15 15:23N 47°37' W 122°21'0 0.0
2018-Feb-15 14:59N 47°37' W 122°21'0 0.0
2018-Feb-15 14:29N 47°37' W 122°21'0 0.0
2018-Feb-15 13:59N 47°37' W 122°21'0 0.0
2018-Feb-15 13:29N 47°37' W 122°21'0 0.0
2018-Feb-15 12:59N 47°37' W 122°21'0 0.0
2018-Feb-15 12:29N 47°37' W 122°21'0 0.0
2018-Feb-15 11:59N 47°37' W 122°21'0 0.0
2018-Feb-15 11:29N 47°37' W 122°21'0 0.0
2018-Feb-15 10:59N 47°37' W 122°21'0 0.0
2018-Feb-15 10:29N 47°37' W 122°21'0 0.0
2018-Feb-15 09:59N 47°37' W 122°21'0 0.0
2018-Feb-15 09:23N 47°37' W 122°21'0 0.0
2018-Feb-15 08:59N 47°37' W 122°21'0 0.0
2018-Feb-15 08:26N 47°37' W 122°21'0 0.0
2018-Feb-15 07:59N 47°37' W 122°21'0 0.0
2018-Feb-15 07:29N 47°37' W 122°21'0 0.0
2018-Feb-15 06:56N 47°37' W 122°21'0 0.0
2018-Feb-15 06:20N 47°37' W 122°21'0 0.0
2018-Feb-15 05:59N 47°37' W 122°21'0 0.0
2018-Feb-15 05:17N 47°37' W 122°21'0 0.0
2018-Feb-15 04:59N 47°37' W 122°21'0 0.0
2018-Feb-15 04:26N 47°37' W 122°21'0 0.0
2018-Feb-15 03:59N 47°37' W 122°21'0 0.0
2018-Feb-15 03:29N 47°37' W 122°21'0 0.0
2018-Feb-15 02:59N 47°37' W 122°21'0 0.0
2018-Feb-15 02:29N 47°37' W 122°21'0 0.0
2018-Feb-15 01:59N 47°37' W 122°21'0 0.0
2018-Feb-15 01:29N 47°37' W 122°21'0 0.0
2018-Feb-15 00:59N 47°37' W 122°21'0 0.0
2018-Feb-15 00:29N 47°37' W 122°21'0 0.0
2018-Feb-14 23:59N 47°37' W 122°21'0 0.0
2018-Feb-14 23:29N 47°37' W 122°21'0 0.0
2018-Feb-14 22:59N 47°37' W 122°21'0 0.0
2018-Feb-14 22:26N 47°37' W 122°21'0 0.0
2018-Feb-14 21:50N 47°37' W 122°21'0 0.0
2018-Feb-14 21:29N 47°37' W 122°21'0 0.0
2018-Feb-14 20:59N 47°37' W 122°21'0 0.0
2018-Feb-14 20:26N 47°37' W 122°21'0 0.0
2018-Feb-14 19:59N 47°37' W 122°21'0 0.0
2018-Feb-14 19:23N 47°37' W 122°21'0 0.0
2018-Feb-14 18:59N 47°37' W 122°21'0 0.0
2018-Feb-14 18:29N 47°37' W 122°21'0 0.0
2018-Feb-14 17:59N 47°37' W 122°21'0 0.0
2018-Feb-14 17:29N 47°37' W 122°21'0 0.0
2018-Feb-14 16:59N 47°37' W 122°21'0 0.0
2018-Feb-14 16:29N 47°37' W 122°21'0 0.0
2018-Feb-14 15:59N 47°37' W 122°21'0 0.0
2018-Feb-14 15:26N 47°37' W 122°21'0 0.0
2018-Feb-14 14:59N 47°37' W 122°21'0 0.0
2018-Feb-14 14:26N 47°37' W 122°21'0 0.0
2018-Feb-14 13:59N 47°37' W 122°21'0 0.0
2018-Feb-14 13:29N 47°37' W 122°21'0 0.0
2018-Feb-14 12:59N 47°37' W 122°21'0 0.0
2018-Feb-14 12:26N 47°37' W 122°21'0 0.0
2018-Feb-14 11:59N 47°37' W 122°21'0 0.0
2018-Feb-14 11:29N 47°37' W 122°21'0 0.0
2018-Feb-14 10:50N 47°37' W 122°21'0 0.0
2018-Feb-14 10:29N 47°37' W 122°21'0 0.0
2018-Feb-14 09:50N 47°37' W 122°21'0 0.0
2018-Feb-14 09:26N 47°37' W 122°21'0 0.0
2018-Feb-14 08:56N 47°37' W 122°21'0 0.0
2018-Feb-14 08:26N 47°37' W 122°21'0 0.0
2018-Feb-14 07:56N 47°37' W 122°21'0 0.0
2018-Feb-14 07:29N 47°37' W 122°21'0 0.0
2018-Feb-14 06:59N 47°37' W 122°21'0 0.0
2018-Feb-14 06:05N 47°37' W 122°21'0 0.0
2018-Feb-14 05:47N 47°37' W 122°21'0 0.0
2018-Feb-14 03:53N 47°37' W 122°21'0 0.0
2018-Feb-14 03:25N 47°37' W 122°21'0 0.0
2018-Feb-14 02:58N 47°37' W 122°21'0 0.0
2018-Feb-14 02:28N 47°37' W 122°21'0 0.0
2018-Feb-14 01:52N 47°37' W 122°21'0 0.0
2018-Feb-14 01:28N 47°37' W 122°21'0 0.0
2018-Feb-14 00:58N 47°37' W 122°21'0 0.0
2018-Feb-14 00:28N 47°37' W 122°21'0 0.0
2018-Feb-13 23:58N 47°37' W 122°21'0 0.0
2018-Feb-13 23:28N 47°37' W 122°21'0 0.0
2018-Feb-13 22:55N 47°37' W 122°21'0 0.0
2018-Feb-13 22:28N 47°37' W 122°21'0 0.0
2018-Feb-13 21:58N 47°37' W 122°21'0 0.0
2018-Feb-13 21:28N 47°37' W 122°21'0 0.0
2018-Feb-13 20:58N 47°37' W 122°21'0 0.0
2018-Feb-13 20:28N 47°37' W 122°21'0 0.0
2018-Feb-13 19:58N 47°37' W 122°21'0 0.0
2018-Feb-13 19:28N 47°37' W 122°21'0 0.0
2018-Feb-13 18:58N 47°37' W 122°21'0 0.0
2018-Feb-13 18:25N 47°37' W 122°21'0 0.0
2018-Feb-13 17:58N 47°37' W 122°21'0 0.0
2018-Feb-13 17:25N 47°37' W 122°21'0 0.0
2018-Feb-13 16:58N 47°37' W 122°21'0 0.0
2018-Feb-13 16:25N 47°37' W 122°21'0 0.0
2018-Feb-13 15:55N 47°37' W 122°21'0 0.0
2018-Feb-13 15:28N 47°37' W 122°21'0 0.0
2018-Feb-13 14:16N 47°37' W 122°21'0 0.0
2018-Feb-13 13:46N 47°37' W 122°21'0 0.0
2018-Feb-13 13:25N 47°37' W 122°21'0 0.0
2018-Feb-13 11:46N 47°37' W 122°21'0 0.0
2018-Feb-13 11:13N 47°37' W 122°21'0 0.0
2018-Feb-13 10:55N 47°37' W 122°21'0 0.0
2018-Feb-13 10:19N 47°37' W 122°21'0 0.0
2018-Feb-13 09:55N 47°37' W 122°21'0 0.0
2018-Feb-13 09:25N 47°37' W 122°21'0 0.0
2018-Feb-13 06:22N 47°37' W 122°21'0 0.0
2018-Feb-13 05:58N 47°37' W 122°21'0 0.0
2018-Feb-13 05:22N 47°37' W 122°21'0 0.0
2018-Feb-13 04:58N 47°37' W 122°21'0 0.0
2018-Feb-13 04:25N 47°37' W 122°21'0 0.0
2018-Feb-13 02:34N 47°37' W 122°21'0 0.0
2018-Feb-13 01:16N 47°37' W 122°21'0 0.0
2018-Feb-13 00:49N 47°37' W 122°21'0 0.0
2018-Feb-13 00:28N 47°37' W 122°21'0 0.0
2018-Feb-12 23:58N 47°37' W 122°21'0 0.0
2018-Feb-12 23:22N 47°37' W 122°21'0 0.0
2018-Feb-12 22:58N 47°37' W 122°21'0 0.0
2018-Feb-12 22:28N 47°37' W 122°21'0 0.0
2018-Feb-12 21:58N 47°37' W 122°21'0 0.0
2018-Feb-12 21:25N 47°37' W 122°21'0 0.0
2018-Feb-12 20:55N 47°37' W 122°21'0 0.0
2018-Feb-12 20:25N 47°37' W 122°21'0 0.0
2018-Feb-12 19:58N 47°37' W 122°21'0 0.0
2018-Feb-12 19:29N 47°37' W 122°21'4 9.2
2018-Feb-12 19:00N 47°41' W 122°25'1 1.8
2018-Feb-12 18:27N 47°40' W 122°24'0 0.4
2018-Feb-12 18:00N 47°40' W 122°23'0 0.0
2018-Feb-12 17:30N 47°40' W 122°23'0 0.0
2018-Feb-12 16:57N 47°40' W 122°23'0 0.0
2018-Feb-12 16:30N 47°40' W 122°23'0 0.0
2018-Feb-12 16:00N 47°40' W 122°23'0 0.0
2018-Feb-12 15:15N 47°40' W 122°23'0 0.0
2018-Feb-12 14:57N 47°40' W 122°23'0 0.0
2018-Feb-12 14:30N 47°40' W 122°23'0 0.0
2018-Feb-12 14:00N 47°40' W 122°23'0 0.0
2018-Feb-12 13:30N 47°40' W 122°23'0 0.0
2018-Feb-12 13:00N 47°40' W 122°23'0 0.0
2018-Feb-12 12:30N 47°40' W 122°23'0 0.0
2018-Feb-12 12:00N 47°40' W 122°23'0 0.0
2018-Feb-12 11:30N 47°40' W 122°23'0 0.0
2018-Feb-12 11:00N 47°40' W 122°23'0 0.0
2018-Feb-12 10:30N 47°40' W 122°23'0 0.0
2018-Feb-12 09:57N 47°40' W 122°23'0 0.0
2018-Feb-12 09:30N 47°40' W 122°23'0 0.0
2018-Feb-12 08:57N 47°40' W 122°23'0 0.0
2018-Feb-12 08:30N 47°40' W 122°23'0 0.0
2018-Feb-12 08:00N 47°40' W 122°23'0 0.0
2018-Feb-12 07:27N 47°40' W 122°23'0 0.0
2018-Feb-12 07:00N 47°40' W 122°23'0 0.0
2018-Feb-12 06:27N 47°40' W 122°23'0 0.0
2018-Feb-12 05:57N 47°40' W 122°23'0 0.0
2018-Feb-12 05:30N 47°40' W 122°23'0 0.0
2018-Feb-12 04:57N 47°40' W 122°23'0 0.0
2018-Feb-12 04:30N 47°40' W 122°23'0 0.0
2018-Feb-12 04:00N 47°40' W 122°23'0 0.0
2018-Feb-12 03:27N 47°40' W 122°23'0 0.0
2018-Feb-12 03:00N 47°40' W 122°23'0 0.0
2018-Feb-12 02:30N 47°40' W 122°23'0 0.0
2018-Feb-12 01:54N 47°40' W 122°23'0 0.0
2018-Feb-12 01:30N 47°40' W 122°23'0 0.0
2018-Feb-12 01:00N 47°40' W 122°23'0 0.0
2018-Feb-12 00:30N 47°40' W 122°23'0 0.0
2018-Feb-12 00:00N 47°40' W 122°23'0 0.0
2018-Feb-11 23:27N 47°40' W 122°23'0 0.0
2018-Feb-11 23:00N 47°40' W 122°23'0 0.0
2018-Feb-11 22:30N 47°40' W 122°23'0 0.0
2018-Feb-11 21:57N 47°40' W 122°23'0 0.0
2018-Feb-11 21:24N 47°40' W 122°23'0 0.0
2018-Feb-11 21:00N 47°40' W 122°23'0 0.0
2018-Feb-11 20:30N 47°40' W 122°23'0 0.0
2018-Feb-11 20:00N 47°40' W 122°23'0 0.0
2018-Feb-11 19:30N 47°40' W 122°23'0 0.0
2018-Feb-11 18:54N 47°40' W 122°23'0 0.0
2018-Feb-11 18:27N 47°40' W 122°23'0 0.0
2018-Feb-11 18:00N 47°40' W 122°23'0 0.0
2018-Feb-11 17:30N 47°40' W 122°23'0 0.0
2018-Feb-11 17:00N 47°40' W 122°23'0 0.0
2018-Feb-11 16:30N 47°40' W 122°23'0 0.0
2018-Feb-11 15:51N 47°40' W 122°23'0 0.0
2018-Feb-11 15:30N 47°40' W 122°23'0 0.0
2018-Feb-11 15:00N 47°40' W 122°23'0 0.0
2018-Feb-11 14:30N 47°40' W 122°23'0 0.0
2018-Feb-11 14:00N 47°40' W 122°23'0 0.0
2018-Feb-11 13:30N 47°40' W 122°23'0 0.0
2018-Feb-11 13:00N 47°40' W 122°23'0 0.0
2018-Feb-11 12:30N 47°40' W 122°23'0 0.0
2018-Feb-11 12:00N 47°40' W 122°23'0 0.0
2018-Feb-11 11:21N 47°40' W 122°23'0 0.0
2018-Feb-11 11:00N 47°40' W 122°23'0 0.0
2018-Feb-11 10:30N 47°40' W 122°23'0 0.0
2018-Feb-11 09:57N 47°40' W 122°23'0 0.0
2018-Feb-11 09:27N 47°40' W 122°23'0 0.0
2018-Feb-11 09:00N 47°40' W 122°23'0 0.0
2018-Feb-11 08:30N 47°40' W 122°23'0 0.0
2018-Feb-11 08:00N 47°40' W 122°23'0 0.0
2018-Feb-11 07:30N 47°40' W 122°23'0 0.0
2018-Feb-11 07:00N 47°40' W 122°23'0 0.0
2018-Feb-11 06:30N 47°40' W 122°23'0 0.0
2018-Feb-11 06:00N 47°40' W 122°23'0 0.0
2018-Feb-11 05:30N 47°40' W 122°23'0 0.0
2018-Feb-11 05:00N 47°40' W 122°23'0 0.0
2018-Feb-11 04:30N 47°40' W 122°23'0 0.0
2018-Feb-11 04:00N 47°40' W 122°23'0 0.0
2018-Feb-11 03:30N 47°40' W 122°23'0 0.0
2018-Feb-11 02:57N 47°40' W 122°23'0 0.0
2018-Feb-11 02:30N 47°40' W 122°23'0 0.0
2018-Feb-11 02:00N 47°40' W 122°23'0 0.0
2018-Feb-11 01:30N 47°40' W 122°23'0 0.0
2018-Feb-11 01:00N 47°40' W 122°23'0 0.0
2018-Feb-11 00:30N 47°40' W 122°23'0 0.0
2018-Feb-11 00:00N 47°40' W 122°23'0 0.0
2018-Feb-10 23:30N 47°40' W 122°23'0 0.0
2018-Feb-10 22:54N 47°40' W 122°23'0 0.0
2018-Feb-10 22:30N 47°40' W 122°23'0 0.0
2018-Feb-10 22:00N 47°40' W 122°23'0 0.0
2018-Feb-10 21:27N 47°40' W 122°23'0 0.0
2018-Feb-10 21:00N 47°40' W 122°23'0 0.0
2018-Feb-10 20:30N 47°40' W 122°23'0 0.0
2018-Feb-10 20:00N 47°40' W 122°23'0 0.0
2018-Feb-10 19:24N 47°40' W 122°23'0 0.0
2018-Feb-10 19:00N 47°40' W 122°23'0 0.0
2018-Feb-10 18:30N 47°40' W 122°23'0 0.0
2018-Feb-10 18:00N 47°40' W 122°23'0 0.0
2018-Feb-10 17:30N 47°40' W 122°23'0 0.0
2018-Feb-10 16:57N 47°40' W 122°23'0 0.0
2018-Feb-10 16:30N 47°40' W 122°23'0 0.0
2018-Feb-10 16:00N 47°40' W 122°23'0 0.0
2018-Feb-10 15:27N 47°40' W 122°23'0 0.0
2018-Feb-10 15:00N 47°40' W 122°23'0 0.0
2018-Feb-10 14:30N 47°40' W 122°23'0 0.0
2018-Feb-10 14:00N 47°40' W 122°23'0 0.0
2018-Feb-10 13:30N 47°40' W 122°23'0 0.0
2018-Feb-10 12:57N 47°40' W 122°23'0 0.0
2018-Feb-10 12:30N 47°40' W 122°23'0 0.0
2018-Feb-10 12:00N 47°40' W 122°23'0 0.0
2018-Feb-10 11:27N 47°40' W 122°23'0 0.0
2018-Feb-10 11:00N 47°40' W 122°23'0 0.0
2018-Feb-10 10:30N 47°40' W 122°23'0 0.0
2018-Feb-10 10:00N 47°40' W 122°23'0 0.0
2018-Feb-10 09:30N 47°40' W 122°23'0 0.0
2018-Feb-10 08:57N 47°40' W 122°23'0 0.0
2018-Feb-10 08:18N 47°40' W 122°23'0 0.0
2018-Feb-10 07:57N 47°40' W 122°23'0 0.0
2018-Feb-10 07:30N 47°40' W 122°23'0 0.0
2018-Feb-10 07:00N 47°40' W 122°23'0 0.0
2018-Feb-10 06:27N 47°40' W 122°23'0 0.0
2018-Feb-10 06:00N 47°40' W 122°23'0 0.0
2018-Feb-10 05:30N 47°40' W 122°23'0 0.0
2018-Feb-10 05:00N 47°40' W 122°23'0 0.0
2018-Feb-10 04:27N 47°40' W 122°23'0 0.0
2018-Feb-10 03:57N 47°40' W 122°23'0 0.0
2018-Feb-10 03:30N 47°40' W 122°23'0 0.0
2018-Feb-10 02:57N 47°40' W 122°23'0 0.0
2018-Feb-10 02:27N 47°40' W 122°23'0 0.0
2018-Feb-10 01:57N 47°40' W 122°23'0 0.0
2018-Feb-10 01:30N 47°40' W 122°23'0 0.0
2018-Feb-10 01:00N 47°40' W 122°23'0 0.0
2018-Feb-10 00:30N 47°40' W 122°23'0 0.0
2018-Feb-10 00:00N 47°40' W 122°23'0 0.0
2018-Feb-09 23:30N 47°40' W 122°23'0 0.0
2018-Feb-09 23:00N 47°40' W 122°23'0 0.0
2018-Feb-09 22:45N 47°40' W 122°23'  
Track history (hours):
 
Tides and Currents Weather Stations Pressure Air Temp Water Temp Dewpoint Dewpoint Depression Visibility Wind Speed Wind Dir Waves Ship Positions

Victoria Clipper IV

Last reported at 2018-Feb-18 01:29 UTC. Time now 2018-Feb-18 01:37 UTC.
Position N 48°26' W 122°30'.

Length 40 m; draft 2.5 m.

Type: High speed craft. MMSI: 311037800.

Date/timePositionNaut miles runAvg speedWind from/ knotsBaromVisibWave heightAir tempDewpointWater temp
2018-Feb-18 01:29N 48°26' W 122°30'4 8.1
2018-Feb-18 01:00N 48°30' W 122°33'1224.4
2018-Feb-18 00:31N 48°32' W 122°50'1224.5
2018-Feb-18 00:00N 48°38' W 123°07'18 3.3
2018-Feb-17 18:26N 48°22' W 123°22'4127.2
2018-Feb-17 16:56N 47°58' W 122°34'1126.6
2018-Feb-17 16:31N 47°47' W 122°26'1121.8
2018-Feb-17 16:00N 47°37' W 122°21'0 0.2
2018-Feb-17 15:25N 47°37' W 122°21'0 0.0
2018-Feb-17 14:59N 47°37' W 122°21'2 3.0
2018-Feb-17 14:29N 47°35' W 122°21'2 0.8
2018-Feb-17 12:32N 47°37' W 122°21'0 0.0
2018-Feb-17 11:14N 47°37' W 122°21'0 0.0
2018-Feb-17 10:50N 47°37' W 122°21'0 0.0
2018-Feb-17 10:26N 47°37' W 122°21'0 0.0
2018-Feb-17 09:56N 47°37' W 122°21'0 0.0
2018-Feb-17 09:14N 47°37' W 122°21'0 0.0
2018-Feb-17 06:56N 47°37' W 122°21'0 0.0
2018-Feb-17 06:23N 47°37' W 122°21'0 0.0
2018-Feb-17 03:44N 47°37' W 122°21'314.4
2018-Feb-17 03:31N 47°38' W 122°26'1428.5
2018-Feb-17 03:00N 47°52' W 122°29'4127.3
2018-Feb-17 01:31N 48°20' W 123°13'229.4
2018-Feb-17 01:28N 48°21' W 123°16'3 0.5
2018-Feb-16 18:20N 48°22' W 123°21'4028.3
2018-Feb-16 16:56N 47°58' W 122°34'1228.3
2018-Feb-16 16:31N 47°47' W 122°26'1113.8
2018-Feb-16 15:45N 47°37' W 122°21'0 0.0
2018-Feb-16 15:24N 47°37' W 122°21'2 3.9
2018-Feb-16 15:00N 47°35' W 122°21'2 2.8
2018-Feb-16 14:29N 47°37' W 122°21'0 0.0
2018-Feb-16 13:59N 47°37' W 122°21'0 0.0
2018-Feb-16 13:29N 47°37' W 122°21'0 0.0
2018-Feb-16 12:59N 47°37' W 122°21'0 0.0
2018-Feb-16 12:29N 47°37' W 122°21'0 0.0
2018-Feb-16 11:59N 47°37' W 122°21'0 0.0
2018-Feb-16 11:29N 47°37' W 122°21'0 0.0
2018-Feb-16 10:59N 47°37' W 122°21'0 0.0
2018-Feb-16 10:29N 47°37' W 122°21'0 0.0
2018-Feb-16 09:59N 47°37' W 122°21'0 0.0
2018-Feb-16 09:29N 47°37' W 122°21'0 0.0
2018-Feb-16 08:59N 47°37' W 122°21'0 0.0
2018-Feb-16 08:17N 47°37' W 122°21'0 0.0
2018-Feb-16 07:47N 47°37' W 122°21'0 0.0
2018-Feb-16 05:59N 47°37' W 122°21'0 0.0
2018-Feb-16 05:26N 47°37' W 122°21'0 0.0
2018-Feb-16 04:50N 47°37' W 122°21'0 0.0
2018-Feb-16 04:23N 47°37' W 122°21'0 0.0
2018-Feb-16 03:59N 47°37' W 122°21'0 0.0
2018-Feb-16 03:29N 47°37' W 122°21'0 0.0
2018-Feb-16 02:59N 47°37' W 122°21'0 0.0
2018-Feb-16 02:26N 47°37' W 122°21'0 0.0
2018-Feb-16 01:59N 47°37' W 122°21'0 0.0
2018-Feb-16 01:29N 47°37' W 122°21'0 0.0
2018-Feb-16 00:59N 47°37' W 122°21'0 0.0
2018-Feb-16 00:29N 47°37' W 122°21'0 0.0
2018-Feb-15 23:59N 47°37' W 122°21'0 0.0
2018-Feb-15 23:20N 47°37' W 122°21'0 0.0
2018-Feb-15 22:59N 47°37' W 122°21'0 0.0
2018-Feb-15 22:29N 47°37' W 122°21'0 0.0
2018-Feb-15 21:59N 47°37' W 122°21'0 0.0
2018-Feb-15 21:29N 47°37' W 122°21'0 0.0
2018-Feb-15 20:59N 47°37' W 122°21'0 0.0
2018-Feb-15 20:29N 47°37' W 122°21'0 0.0
2018-Feb-15 19:50N 47°37' W 122°21'0 0.0
2018-Feb-15 19:29N 47°37' W 122°21'0 0.0
2018-Feb-15 18:59N 47°37' W 122°21'0 0.0
2018-Feb-15 18:29N 47°37' W 122°21'0 0.0
2018-Feb-15 17:59N 47°37' W 122°21'0 0.0
2018-Feb-15 17:29N 47°37' W 122°21'0 0.0
2018-Feb-15 16:59N 47°37' W 122°21'0 0.0
2018-Feb-15 16:29N 47°37' W 122°21'0 0.0
2018-Feb-15 15:56N 47°37' W 122°21'0 0.0
2018-Feb-15 15:23N 47°37' W 122°21'0 0.0
2018-Feb-15 14:59N 47°37' W 122°21'0 0.0
2018-Feb-15 14:29N 47°37' W 122°21'0 0.0
2018-Feb-15 13:59N 47°37' W 122°21'0 0.0
2018-Feb-15 13:29N 47°37' W 122°21'0 0.0
2018-Feb-15 12:59N 47°37' W 122°21'0 0.0
2018-Feb-15 12:29N 47°37' W 122°21'0 0.0
2018-Feb-15 11:59N 47°37' W 122°21'0 0.0
2018-Feb-15 11:29N 47°37' W 122°21'0 0.0
2018-Feb-15 10:59N 47°37' W 122°21'0 0.0
2018-Feb-15 10:29N 47°37' W 122°21'0 0.0
2018-Feb-15 09:59N 47°37' W 122°21'0 0.0
2018-Feb-15 09:23N 47°37' W 122°21'0 0.0
2018-Feb-15 08:59N 47°37' W 122°21'0 0.0
2018-Feb-15 08:26N 47°37' W 122°21'0 0.0
2018-Feb-15 07:59N 47°37' W 122°21'0 0.0
2018-Feb-15 07:29N 47°37' W 122°21'0 0.0
2018-Feb-15 06:56N 47°37' W 122°21'0 0.0
2018-Feb-15 06:20N 47°37' W 122°21'0 0.0
2018-Feb-15 05:59N 47°37' W 122°21'0 0.0
2018-Feb-15 05:17N 47°37' W 122°21'0 0.0
2018-Feb-15 04:59N 47°37' W 122°21'0 0.0
2018-Feb-15 04:26N 47°37' W 122°21'0 0.0
2018-Feb-15 03:59N 47°37' W 122°21'0 0.0
2018-Feb-15 03:29N 47°37' W 122°21'0 0.0
2018-Feb-15 02:59N 47°37' W 122°21'0 0.0
2018-Feb-15 02:29N 47°37' W 122°21'0 0.0
2018-Feb-15 01:59N 47°37' W 122°21'0 0.0
2018-Feb-15 01:29N 47°37' W 122°21'0 0.0
2018-Feb-15 00:59N 47°37' W 122°21'0 0.0
2018-Feb-15 00:29N 47°37' W 122°21'0 0.0
2018-Feb-14 23:59N 47°37' W 122°21'0 0.0
2018-Feb-14 23:29N 47°37' W 122°21'0 0.0
2018-Feb-14 22:59N 47°37' W 122°21'0 0.0
2018-Feb-14 22:26N 47°37' W 122°21'0 0.0
2018-Feb-14 21:50N 47°37' W 122°21'0 0.0
2018-Feb-14 21:29N 47°37' W 122°21'0 0.0
2018-Feb-14 20:59N 47°37' W 122°21'0 0.0
2018-Feb-14 20:26N 47°37' W 122°21'0 0.0
2018-Feb-14 19:59N 47°37' W 122°21'0 0.0
2018-Feb-14 19:23N 47°37' W 122°21'0 0.0
2018-Feb-14 18:59N 47°37' W 122°21'0 0.0
2018-Feb-14 18:29N 47°37' W 122°21'0 0.0
2018-Feb-14 17:59N 47°37' W 122°21'0 0.0
2018-Feb-14 17:29N 47°37' W 122°21'0 0.0
2018-Feb-14 16:59N 47°37' W 122°21'0 0.0
2018-Feb-14 16:29N 47°37' W 122°21'0 0.0
2018-Feb-14 15:59N 47°37' W 122°21'0 0.0
2018-Feb-14 15:26N 47°37' W 122°21'0 0.0
2018-Feb-14 14:59N 47°37' W 122°21'0 0.0
2018-Feb-14 14:26N 47°37' W 122°21'0 0.0
2018-Feb-14 13:59N 47°37' W 122°21'0 0.0
2018-Feb-14 13:29N 47°37' W 122°21'0 0.0
2018-Feb-14 12:59N 47°37' W 122°21'0 0.0
2018-Feb-14 12:26N 47°37' W 122°21'0 0.0
2018-Feb-14 11:59N 47°37' W 122°21'0 0.0
2018-Feb-14 11:29N 47°37' W 122°21'0 0.0
2018-Feb-14 10:50N 47°37' W 122°21'0 0.0
2018-Feb-14 10:29N 47°37' W 122°21'0 0.0
2018-Feb-14 09:50N 47°37' W 122°21'0 0.0
2018-Feb-14 09:26N 47°37' W 122°21'0 0.0
2018-Feb-14 08:56N 47°37' W 122°21'0 0.0
2018-Feb-14 08:26N 47°37' W 122°21'0 0.0
2018-Feb-14 07:56N 47°37' W 122°21'0 0.0
2018-Feb-14 07:29N 47°37' W 122°21'0 0.0
2018-Feb-14 06:59N 47°37' W 122°21'0 0.0
2018-Feb-14 06:05N 47°37' W 122°21'0 0.0
2018-Feb-14 05:47N 47°37' W 122°21'0 0.0
2018-Feb-14 03:53N 47°37' W 122°21'0 0.0
2018-Feb-14 03:25N 47°37' W 122°21'0 0.0
2018-Feb-14 02:58N 47°37' W 122°21'0 0.0
2018-Feb-14 02:28N 47°37' W 122°21'0 0.0
2018-Feb-14 01:52N 47°37' W 122°21'0 0.0
2018-Feb-14 01:28N 47°37' W 122°21'0 0.0
2018-Feb-14 00:58N 47°37' W 122°21'0 0.0
2018-Feb-14 00:28N 47°37' W 122°21'0 0.0
2018-Feb-13 23:58N 47°37' W 122°21'0 0.0
2018-Feb-13 23:28N 47°37' W 122°21'0 0.0
2018-Feb-13 22:55N 47°37' W 122°21'0 0.0
2018-Feb-13 22:28N 47°37' W 122°21'0 0.0
2018-Feb-13 21:58N 47°37' W 122°21'0 0.0
2018-Feb-13 21:28N 47°37' W 122°21'0 0.0
2018-Feb-13 20:58N 47°37' W 122°21'0 0.0
2018-Feb-13 20:28N 47°37' W 122°21'0 0.0
2018-Feb-13 19:58N 47°37' W 122°21'0 0.0
2018-Feb-13 19:28N 47°37' W 122°21'0 0.0
2018-Feb-13 18:58N 47°37' W 122°21'0 0.0
2018-Feb-13 18:25N 47°37' W 122°21'0 0.0
2018-Feb-13 17:58N 47°37' W 122°21'0 0.0
2018-Feb-13 17:25N 47°37' W 122°21'0 0.0
2018-Feb-13 16:58N 47°37' W 122°21'0 0.0
2018-Feb-13 16:25N 47°37' W 122°21'0 0.0
2018-Feb-13 15:55N 47°37' W 122°21'0 0.0
2018-Feb-13 15:28N 47°37' W 122°21'0 0.0
2018-Feb-13 14:16N 47°37' W 122°21'0 0.0
2018-Feb-13 13:46N 47°37' W 122°21'0 0.0
2018-Feb-13 13:25N 47°37' W 122°21'0 0.0
2018-Feb-13 11:46N 47°37' W 122°21'0 0.0
2018-Feb-13 11:13N 47°37' W 122°21'0 0.0
2018-Feb-13 10:55N 47°37' W 122°21'0 0.0
2018-Feb-13 10:19N 47°37' W 122°21'0 0.0
2018-Feb-13 09:55N 47°37' W 122°21'0 0.0
2018-Feb-13 09:25N 47°37' W 122°21'0 0.0
2018-Feb-13 06:22N 47°37' W 122°21'0 0.0
2018-Feb-13 05:58N 47°37' W 122°21'0 0.0
2018-Feb-13 05:22N 47°37' W 122°21'0 0.0
2018-Feb-13 04:58N 47°37' W 122°21'0 0.0
2018-Feb-13 04:25N 47°37' W 122°21'0 0.0
2018-Feb-13 02:34N 47°37' W 122°21'0 0.0
2018-Feb-13 01:16N 47°37' W 122°21'0 0.0
2018-Feb-13 00:49N 47°37' W 122°21'0 0.0
2018-Feb-13 00:28N 47°37' W 122°21'0 0.0
2018-Feb-12 23:58N 47°37' W 122°21'0 0.0
2018-Feb-12 23:22N 47°37' W 122°21'0 0.0
2018-Feb-12 22:58N 47°37' W 122°21'0 0.0
2018-Feb-12 22:28N 47°37' W 122°21'0 0.0
2018-Feb-12 21:58N 47°37' W 122°21'0 0.0
2018-Feb-12 21:25N 47°37' W 122°21'0 0.0
2018-Feb-12 20:55N 47°37' W 122°21'0 0.0
2018-Feb-12 20:25N 47°37' W 122°21'0 0.0
2018-Feb-12 19:58N 47°37' W 122°21'0 0.0
2018-Feb-12 19:29N 47°37' W 122°21'4 9.2
2018-Feb-12 19:00N 47°41' W 122°25'1 1.8
2018-Feb-12 18:27N 47°40' W 122°24'0 0.4
2018-Feb-12 18:00N 47°40' W 122°23'0 0.0
2018-Feb-12 17:30N 47°40' W 122°23'0 0.0
2018-Feb-12 16:57N 47°40' W 122°23'0 0.0
2018-Feb-12 16:30N 47°40' W 122°23'0 0.0
2018-Feb-12 16:00N 47°40' W 122°23'0 0.0
2018-Feb-12 15:15N 47°40' W 122°23'0 0.0
2018-Feb-12 14:57N 47°40' W 122°23'0 0.0
2018-Feb-12 14:30N 47°40' W 122°23'0 0.0
2018-Feb-12 14:00N 47°40' W 122°23'0 0.0
2018-Feb-12 13:30N 47°40' W 122°23'0 0.0
2018-Feb-12 13:00N 47°40' W 122°23'0 0.0
2018-Feb-12 12:30N 47°40' W 122°23'0 0.0
2018-Feb-12 12:00N 47°40' W 122°23'0 0.0
2018-Feb-12 11:30N 47°40' W 122°23'0 0.0
2018-Feb-12 11:00N 47°40' W 122°23'0 0.0
2018-Feb-12 10:30N 47°40' W 122°23'0 0.0
2018-Feb-12 09:57N 47°40' W 122°23'0 0.0
2018-Feb-12 09:30N 47°40' W 122°23'0 0.0
2018-Feb-12 08:57N 47°40' W 122°23'0 0.0
2018-Feb-12 08:30N 47°40' W 122°23'0 0.0
2018-Feb-12 08:00N 47°40' W 122°23'0 0.0
2018-Feb-12 07:27N 47°40' W 122°23'0 0.0
2018-Feb-12 07:00N 47°40' W 122°23'0 0.0
2018-Feb-12 06:27N 47°40' W 122°23'0 0.0
2018-Feb-12 05:57N 47°40' W 122°23'0 0.0
2018-Feb-12 05:30N 47°40' W 122°23'0 0.0
2018-Feb-12 04:57N 47°40' W 122°23'0 0.0
2018-Feb-12 04:30N 47°40' W 122°23'0 0.0
2018-Feb-12 04:00N 47°40' W 122°23'0 0.0
2018-Feb-12 03:27N 47°40' W 122°23'0 0.0
2018-Feb-12 03:00N 47°40' W 122°23'0 0.0
2018-Feb-12 02:30N 47°40' W 122°23'0 0.0
2018-Feb-12 01:54N 47°40' W 122°23'0 0.0
2018-Feb-12 01:30N 47°40' W 122°23'0 0.0
2018-Feb-12 01:00N 47°40' W 122°23'0 0.0
2018-Feb-12 00:30N 47°40' W 122°23'0 0.0
2018-Feb-12 00:00N 47°40' W 122°23'0 0.0
2018-Feb-11 23:27N 47°40' W 122°23'0 0.0
2018-Feb-11 23:00N 47°40' W 122°23'0 0.0
2018-Feb-11 22:30N 47°40' W 122°23'0 0.0
2018-Feb-11 21:57N 47°40' W 122°23'0 0.0
2018-Feb-11 21:24N 47°40' W 122°23'0 0.0
2018-Feb-11 21:00N 47°40' W 122°23'0 0.0
2018-Feb-11 20:30N 47°40' W 122°23'0 0.0
2018-Feb-11 20:00N 47°40' W 122°23'0 0.0
2018-Feb-11 19:30N 47°40' W 122°23'0 0.0
2018-Feb-11 18:54N 47°40' W 122°23'0 0.0
2018-Feb-11 18:27N 47°40' W 122°23'0 0.0
2018-Feb-11 18:00N 47°40' W 122°23'0 0.0
2018-Feb-11 17:30N 47°40' W 122°23'0 0.0
2018-Feb-11 17:00N 47°40' W 122°23'0 0.0
2018-Feb-11 16:30N 47°40' W 122°23'0 0.0
2018-Feb-11 15:51N 47°40' W 122°23'0 0.0
2018-Feb-11 15:30N 47°40' W 122°23'0 0.0
2018-Feb-11 15:00N 47°40' W 122°23'0 0.0
2018-Feb-11 14:30N 47°40' W 122°23'0 0.0
2018-Feb-11 14:00N 47°40' W 122°23'0 0.0
2018-Feb-11 13:30N 47°40' W 122°23'0 0.0
2018-Feb-11 13:00N 47°40' W 122°23'0 0.0
2018-Feb-11 12:30N 47°40' W 122°23'0 0.0
2018-Feb-11 12:00N 47°40' W 122°23'0 0.0
2018-Feb-11 11:21N 47°40' W 122°23'0 0.0
2018-Feb-11 11:00N 47°40' W 122°23'0 0.0
2018-Feb-11 10:30N 47°40' W 122°23'0 0.0
2018-Feb-11 09:57N 47°40' W 122°23'0 0.0
2018-Feb-11 09:27N 47°40' W 122°23'0 0.0
2018-Feb-11 09:00N 47°40' W 122°23'0 0.0
2018-Feb-11 08:30N 47°40' W 122°23'0 0.0
2018-Feb-11 08:00N 47°40' W 122°23'0 0.0
2018-Feb-11 07:30N 47°40' W 122°23'0 0.0
2018-Feb-11 07:00N 47°40' W 122°23'0 0.0
2018-Feb-11 06:30N 47°40' W 122°23'0 0.0
2018-Feb-11 06:00N 47°40' W 122°23'0 0.0
2018-Feb-11 05:30N 47°40' W 122°23'0 0.0
2018-Feb-11 05:00N 47°40' W 122°23'0 0.0
2018-Feb-11 04:30N 47°40' W 122°23'0 0.0
2018-Feb-11 04:00N 47°40' W 122°23'0 0.0
2018-Feb-11 03:30N 47°40' W 122°23'0 0.0
2018-Feb-11 02:57N 47°40' W 122°23'0 0.0
2018-Feb-11 02:30N 47°40' W 122°23'0 0.0
2018-Feb-11 02:00N 47°40' W 122°23'0 0.0
2018-Feb-11 01:30N 47°40' W 122°23'0 0.0
2018-Feb-11 01:00N 47°40' W 122°23'0 0.0
2018-Feb-11 00:30N 47°40' W 122°23'0 0.0
2018-Feb-11 00:00N 47°40' W 122°23'0 0.0
2018-Feb-10 23:30N 47°40' W 122°23'0 0.0
2018-Feb-10 22:54N 47°40' W 122°23'0 0.0
2018-Feb-10 22:30N 47°40' W 122°23'0 0.0
2018-Feb-10 22:00N 47°40' W 122°23'0 0.0
2018-Feb-10 21:27N 47°40' W 122°23'0 0.0
2018-Feb-10 21:00N 47°40' W 122°23'0 0.0
2018-Feb-10 20:30N 47°40' W 122°23'0 0.0
2018-Feb-10 20:00N 47°40' W 122°23'0 0.0
2018-Feb-10 19:24N 47°40' W 122°23'0 0.0
2018-Feb-10 19:00N 47°40' W 122°23'0 0.0
2018-Feb-10 18:30N 47°40' W 122°23'0 0.0
2018-Feb-10 18:00N 47°40' W 122°23'0 0.0
2018-Feb-10 17:30N 47°40' W 122°23'0 0.0
2018-Feb-10 16:57N 47°40' W 122°23'0 0.0
2018-Feb-10 16:30N 47°40' W 122°23'0 0.0
2018-Feb-10 16:00N 47°40' W 122°23'0 0.0
2018-Feb-10 15:27N 47°40' W 122°23'0 0.0
2018-Feb-10 15:00N 47°40' W 122°23'0 0.0
2018-Feb-10 14:30N 47°40' W 122°23'0 0.0
2018-Feb-10 14:00N 47°40' W 122°23'0 0.0
2018-Feb-10 13:30N 47°40' W 122°23'0 0.0
2018-Feb-10 12:57N 47°40' W 122°23'0 0.0
2018-Feb-10 12:30N 47°40' W 122°23'0 0.0
2018-Feb-10 12:00N 47°40' W 122°23'0 0.0
2018-Feb-10 11:27N 47°40' W 122°23'0 0.0
2018-Feb-10 11:00N 47°40' W 122°23'0 0.0
2018-Feb-10 10:30N 47°40' W 122°23'0 0.0
2018-Feb-10 10:00N 47°40' W 122°23'0 0.0
2018-Feb-10 09:30N 47°40' W 122°23'0 0.0
2018-Feb-10 08:57N 47°40' W 122°23'0 0.0
2018-Feb-10 08:18N 47°40' W 122°23'0 0.0
2018-Feb-10 07:57N 47°40' W 122°23'0 0.0
2018-Feb-10 07:30N 47°40' W 122°23'0 0.0
2018-Feb-10 07:00N 47°40' W 122°23'0 0.0
2018-Feb-10 06:27N 47°40' W 122°23'0 0.0
2018-Feb-10 06:00N 47°40' W 122°23'0 0.0
2018-Feb-10 05:30N 47°40' W 122°23'0 0.0
2018-Feb-10 05:00N 47°40' W 122°23'0 0.0
2018-Feb-10 04:27N 47°40' W 122°23'0 0.0
2018-Feb-10 03:57N 47°40' W 122°23'0 0.0
2018-Feb-10 03:30N 47°40' W 122°23'0 0.0
2018-Feb-10 02:57N 47°40' W 122°23'0 0.0
2018-Feb-10 02:27N 47°40' W 122°23'0 0.0
2018-Feb-10 01:57N 47°40' W 122°23'0 0.0
2018-Feb-10 01:30N 47°40' W 122°23'0 0.0
2018-Feb-10 01:00N 47°40' W 122°23'0 0.0
2018-Feb-10 00:30N 47°40' W 122°23'0 0.0
2018-Feb-10 00:00N 47°40' W 122°23'0 0.0
2018-Feb-09 23:30N 47°40' W 122°23'0 0.0
2018-Feb-09 23:00N 47°40' W 122°23'0 0.0
2018-Feb-09 22:45N 47°40' W 122°23'  

Dump ship's entire track history